createdAt,value
2023-02-19T00:01:46.731Z,90.59
2023-02-19T00:04:14.741Z,90.51
2023-02-19T00:06:42.500Z,91.77
2023-02-19T00:09:11.128Z,92.82
2023-02-19T00:11:38.510Z,93.08
2023-02-19T00:14:08.360Z,93.13
2023-02-19T00:16:38.529Z,93.73
2023-02-19T00:19:09.025Z,93.90
2023-02-19T00:21:39.975Z,94.59
2023-02-19T00:24:08.040Z,94.98
2023-02-19T00:26:34.925Z,94.74
2023-02-19T00:29:04.597Z,95.62
2023-02-19T00:31:35.673Z,95.72
2023-02-19T00:34:07.146Z,95.89
2023-02-19T00:36:37.518Z,96.22
2023-02-19T00:39:05.366Z,96.75
2023-02-19T00:41:32.745Z,96.95
2023-02-19T00:44:00.766Z,97.17
2023-02-19T00:46:34.825Z,97.27
2023-02-19T00:49:04.821Z,97.70
2023-02-19T00:51:34.892Z,97.42
2023-02-19T00:54:01.549Z,97.83
2023-02-19T00:56:28.309Z,98.36
2023-02-19T00:58:58.675Z,98.25
2023-02-19T01:01:27.064Z,98.34
2023-02-19T01:03:53.662Z,98.70
2023-02-19T01:06:21.475Z,99.21
2023-02-19T01:08:48.408Z,99.23
2023-02-19T01:11:17.336Z,99.48
2023-02-19T01:13:44.016Z,99.44
2023-02-19T01:16:22.335Z,99.46
2023-02-19T01:18:49.414Z,99.94
2023-02-19T01:21:22.993Z,100.00
2023-02-19T01:23:52.607Z,100.00
2023-02-19T01:26:21.815Z,100.00
2023-02-19T01:28:48.956Z,100.00
2023-02-19T01:31:23.180Z,100.00
2023-02-19T01:33:57.899Z,100.00
2023-02-19T01:36:29.258Z,100.00
2023-02-19T01:39:05.671Z,99.95
2023-02-19T01:41:38.661Z,100.00
2023-02-19T01:44:05.321Z,100.00
2023-02-19T01:46:33.429Z,100.00
2023-02-19T01:49:08.303Z,100.00
2023-02-19T01:51:44.006Z,100.00
2023-02-19T01:54:13.527Z,100.00
2023-02-19T01:56:44.125Z,100.00
2023-02-19T01:59:10.938Z,100.00
2023-02-19T02:01:41.422Z,100.00
2023-02-19T02:04:11.111Z,100.00
2023-02-19T02:07:25.528Z,100.00
2023-02-19T02:10:11.805Z,100.00
2023-02-19T02:12:38.360Z,100.00
2023-02-19T02:15:05.470Z,100.00
2023-02-19T02:17:48.640Z,99.60
2023-02-19T02:20:36.016Z,100.00
2023-02-19T02:23:14.321Z,100.00
2023-02-19T02:25:41.407Z,100.00
2023-02-19T02:28:36.119Z,100.00
2023-02-19T02:31:14.708Z,100.00
2023-02-19T02:33:47.893Z,100.00
2023-02-19T02:36:35.851Z,100.00
2023-02-19T02:39:05.501Z,100.00
2023-02-19T02:41:41.028Z,100.00
2023-02-19T02:44:07.723Z,100.00
2023-02-19T02:46:36.899Z,100.00
2023-02-19T02:49:06.644Z,100.00
2023-02-19T02:51:45.641Z,100.00
2023-02-19T02:54:35.305Z,100.00
2023-02-19T02:57:04.475Z,100.00
2023-02-19T02:59:34.778Z,100.00
2023-02-19T03:02:14.860Z,100.00
2023-02-19T03:05:38.278Z,100.00
2023-02-19T03:08:11.904Z,100.00
2023-02-19T03:10:59.645Z,100.00
2023-02-19T03:13:55.585Z,100.00
2023-02-19T03:16:47.312Z,100.00
2023-02-19T03:19:21.472Z,100.00
2023-02-19T03:22:10.841Z,99.93
2023-02-19T03:25:08.349Z,99.95
2023-02-19T03:27:37.651Z,100.00
2023-02-19T03:30:11.973Z,99.89
2023-02-19T03:32:55.702Z,99.92
2023-02-19T03:35:32.232Z,99.92
2023-02-19T03:38:18.664Z,99.69
2023-02-19T03:41:01.718Z,99.91
2023-02-19T03:44:00.397Z,99.29
2023-02-19T03:46:44.468Z,99.04
2023-02-19T03:49:18.928Z,99.05
2023-02-19T03:52:03.281Z,99.27
2023-02-19T03:54:46.048Z,98.86
2023-02-19T03:57:45.010Z,98.73
2023-02-19T04:00:17.073Z,99.45
2023-02-19T04:02:56.202Z,98.99
2023-02-19T04:05:37.369Z,99.55
2023-02-19T04:08:13.062Z,99.54
2023-02-19T04:10:42.527Z,99.42
2023-02-19T04:13:18.581Z,99.80
2023-02-19T04:15:49.236Z,99.46
2023-02-19T04:18:20.634Z,100.00
2023-02-19T04:20:50.360Z,100.00
2023-02-19T04:23:22.517Z,100.00
2023-02-19T04:25:59.448Z,100.00
2023-02-19T04:28:27.795Z,100.00
2023-02-19T04:30:54.446Z,100.00
2023-02-19T04:33:20.934Z,100.00
2023-02-19T04:35:47.564Z,100.00
2023-02-19T04:38:14.848Z,100.00
2023-02-19T04:40:41.361Z,100.00
2023-02-19T04:43:09.840Z,100.00
2023-02-19T04:45:39.292Z,100.00
2023-02-19T04:48:06.155Z,100.00
2023-02-19T04:50:39.169Z,100.00
2023-02-19T04:53:06.260Z,100.00
2023-02-19T04:55:32.799Z,100.00
2023-02-19T04:58:00.513Z,100.00
2023-02-19T05:00:27.182Z,100.00
2023-02-19T05:02:53.695Z,100.00
2023-02-19T05:05:22.464Z,100.00
2023-02-19T05:07:49.020Z,100.00
2023-02-19T05:10:15.642Z,100.00
2023-02-19T05:12:52.707Z,100.00
2023-02-19T05:15:22.136Z,100.00
2023-02-19T05:17:48.632Z,100.00
2023-02-19T05:20:15.402Z,100.00
2023-02-19T05:22:42.107Z,100.00
2023-02-19T05:25:08.595Z,100.00
2023-02-19T05:27:35.236Z,100.00
2023-02-19T05:30:01.829Z,100.00
2023-02-19T05:32:28.403Z,100.00
2023-02-19T05:34:55.108Z,100.00
2023-02-19T05:37:21.585Z,100.00
2023-02-19T05:39:49.398Z,100.00
2023-02-19T05:42:17.832Z,100.00
2023-02-19T05:44:44.415Z,100.00
2023-02-19T05:47:11.237Z,100.00
2023-02-19T05:49:39.592Z,100.00
2023-02-19T05:52:06.114Z,100.00
2023-02-19T05:54:32.622Z,100.00
2023-02-19T05:57:01.444Z,100.00
2023-02-19T05:59:28.322Z,100.00
2023-02-19T06:01:55.709Z,100.00
2023-02-19T06:04:22.508Z,100.00
2023-02-19T06:06:49.403Z,100.00
2023-02-19T06:09:18.441Z,100.00
2023-02-19T06:11:45.197Z,100.00
2023-02-19T06:14:14.043Z,100.00
2023-02-19T06:16:40.765Z,100.00
2023-02-19T06:19:09.501Z,100.00
2023-02-19T06:21:36.039Z,100.00
2023-02-19T06:24:07.339Z,100.00
2023-02-19T06:26:34.389Z,100.00
2023-02-19T06:29:00.921Z,100.00
2023-02-19T06:31:30.030Z,100.00
2023-02-19T06:33:58.604Z,100.00
2023-02-19T06:36:25.333Z,100.00
2023-02-19T06:38:51.978Z,100.00
2023-02-19T06:41:20.683Z,100.00
2023-02-19T06:43:47.692Z,100.00
2023-02-19T06:46:14.317Z,100.00
2023-02-19T06:48:42.752Z,100.00
2023-02-19T06:51:14.286Z,100.00
2023-02-19T06:53:41.087Z,100.00
2023-02-19T06:56:23.172Z,100.00
2023-02-19T06:58:49.648Z,100.00
2023-02-19T07:01:16.502Z,100.00
2023-02-19T07:03:43.162Z,100.00
2023-02-19T07:06:09.765Z,100.00
2023-02-19T07:08:36.357Z,100.00
2023-02-19T07:11:02.963Z,100.00
2023-02-19T07:13:29.452Z,100.00
2023-02-19T07:16:02.513Z,100.00
2023-02-19T07:18:30.390Z,100.00
2023-02-19T07:21:10.322Z,100.00
2023-02-19T07:23:38.276Z,100.00
2023-02-19T07:26:05.493Z,100.00
2023-02-19T07:28:32.250Z,100.00
2023-02-19T07:31:02.960Z,100.00
2023-02-19T07:33:29.550Z,100.00
2023-02-19T07:35:56.048Z,100.00
2023-02-19T07:38:27.748Z,100.00
2023-02-19T07:40:56.933Z,100.00
2023-02-19T07:43:24.744Z,100.00
2023-02-19T07:45:53.438Z,100.00
2023-02-19T07:48:20.742Z,100.00
2023-02-19T07:50:58.770Z,100.00
2023-02-19T07:53:27.997Z,100.00
2023-02-19T07:55:54.747Z,100.00
2023-02-19T07:58:23.479Z,100.00
2023-02-19T08:00:49.934Z,100.00
2023-02-19T08:03:16.459Z,100.00
2023-02-19T08:05:45.240Z,100.00
2023-02-19T08:08:14.428Z,100.00
2023-02-19T08:11:00.511Z,100.00
2023-02-19T08:13:30.173Z,100.00
2023-02-19T08:16:07.597Z,100.00
2023-02-19T08:18:42.942Z,100.00
2023-02-19T08:21:10.573Z,100.00
2023-02-19T08:23:37.380Z,100.00
2023-02-19T08:26:04.535Z,100.00
2023-02-19T08:28:31.417Z,100.00
2023-02-19T08:31:03.016Z,100.00
2023-02-19T08:33:36.429Z,100.00
2023-02-19T08:36:08.117Z,100.00
2023-02-19T08:38:36.516Z,100.00
2023-02-19T08:41:08.532Z,100.00
2023-02-19T08:43:35.911Z,100.00
2023-02-19T08:46:16.304Z,100.00
2023-02-19T08:48:42.824Z,100.00
2023-02-19T08:51:11.540Z,100.00
2023-02-19T08:53:39.614Z,100.00
2023-02-19T08:56:11.070Z,100.00
2023-02-19T08:58:40.107Z,100.00
2023-02-19T09:01:17.424Z,100.00
2023-02-19T09:03:44.150Z,100.00
2023-02-19T09:06:18.420Z,100.00
2023-02-19T09:08:45.326Z,100.00
2023-02-19T09:11:12.190Z,100.00
2023-02-19T09:13:38.986Z,100.00
2023-02-19T09:16:06.181Z,100.00
2023-02-19T09:18:32.801Z,100.00
2023-02-19T09:21:05.166Z,100.00
2023-02-19T09:23:36.490Z,100.00
2023-02-19T09:26:06.951Z,100.00
2023-02-19T09:28:33.634Z,100.00
2023-02-19T09:31:13.840Z,100.00
2023-02-19T09:33:51.195Z,100.00
2023-02-19T09:36:18.720Z,100.00
2023-02-19T09:38:45.601Z,100.00
2023-02-19T09:41:32.520Z,100.00
2023-02-19T09:44:00.928Z,100.00
2023-02-19T09:46:49.319Z,99.60
2023-02-19T09:49:21.239Z,97.69
2023-02-19T09:52:01.421Z,96.82
2023-02-19T09:54:30.818Z,95.31
2023-02-19T09:57:02.467Z,94.51
2023-02-19T09:59:39.551Z,94.44
2023-02-19T10:02:17.203Z,95.08
2023-02-19T10:04:45.978Z,93.81
2023-02-19T10:07:21.743Z,92.42
2023-02-19T10:10:13.734Z,92.17
2023-02-19T10:12:47.735Z,90.62
2023-02-19T10:15:27.498Z,89.93
2023-02-19T10:17:54.340Z,87.89
2023-02-19T10:20:24.834Z,86.97
2023-02-19T10:23:05.225Z,87.58
2023-02-19T10:25:33.820Z,87.34
2023-02-19T10:28:01.688Z,89.36
2023-02-19T10:30:33.656Z,89.91
2023-02-19T10:33:15.290Z,91.15
2023-02-19T10:36:05.709Z,92.04
2023-02-19T10:38:39.183Z,92.41
2023-02-19T10:41:13.309Z,93.50
2023-02-19T10:43:44.058Z,94.51
2023-02-19T10:46:26.161Z,93.98
2023-02-19T10:48:59.490Z,93.32
2023-02-19T10:51:38.640Z,90.14
2023-02-19T10:54:24.949Z,88.02
2023-02-19T10:56:51.362Z,87.40
2023-02-19T10:59:18.024Z,87.50
2023-02-19T11:01:59.008Z,86.22
2023-02-19T11:04:27.509Z,85.98
2023-02-19T11:06:54.332Z,87.49
2023-02-19T11:09:32.753Z,86.56
2023-02-19T11:11:59.583Z,86.47
2023-02-19T11:14:29.668Z,83.99
2023-02-19T11:17:00.286Z,84.14
2023-02-19T11:19:36.791Z,83.89
2023-02-19T11:22:38.665Z,83.22
2023-02-19T11:25:17.749Z,82.58
2023-02-19T11:28:07.493Z,82.64
2023-02-19T11:30:40.413Z,83.31
2023-02-19T11:33:24.118Z,82.86
2023-02-19T11:36:27.669Z,83.51
2023-02-19T11:39:03.693Z,83.72
2023-02-19T11:41:49.084Z,84.03
2023-02-19T11:44:30.432Z,83.74
2023-02-19T11:47:18.504Z,85.07
2023-02-19T11:49:46.862Z,86.15
2023-02-19T11:52:16.062Z,86.07
2023-02-19T11:54:54.805Z,87.49
2023-02-19T11:57:36.315Z,89.24
2023-02-19T12:00:17.593Z,90.33
2023-02-19T12:03:21.304Z,90.38
2023-02-19T12:05:57.110Z,91.09
2023-02-19T12:08:31.981Z,90.41
2023-02-19T12:11:12.514Z,91.11
2023-02-19T12:14:15.216Z,90.99
2023-02-19T12:16:54.929Z,90.80
2023-02-19T12:19:55.618Z,90.17
2023-02-19T12:22:40.551Z,89.87
2023-02-19T12:25:29.121Z,89.19
2023-02-19T12:28:00.529Z,89.04
2023-02-19T12:30:41.967Z,88.70
2023-02-19T12:33:22.024Z,87.01
2023-02-19T12:36:00.719Z,86.39
2023-02-19T12:38:58.181Z,85.64
2023-02-19T12:41:53.321Z,85.39
2023-02-19T12:44:30.451Z,83.96
2023-02-19T12:47:01.587Z,84.01
2023-02-19T12:49:30.952Z,84.16
2023-02-19T12:52:04.588Z,84.64
2023-02-19T12:54:38.404Z,84.03
2023-02-19T12:57:12.488Z,84.35
2023-02-19T13:00:07.931Z,85.31
2023-02-19T13:02:50.444Z,85.55
2023-02-19T13:05:38.402Z,85.68
2023-02-19T13:08:14.338Z,86.41
2023-02-19T13:10:50.400Z,86.84
2023-02-19T13:13:28.829Z,86.95
2023-02-19T13:16:06.335Z,87.75
2023-02-19T13:18:43.593Z,87.79
2023-02-19T13:21:12.082Z,88.02
2023-02-19T13:24:03.261Z,87.40
2023-02-19T13:26:49.173Z,87.04
2023-02-19T13:29:37.140Z,86.79
2023-02-19T13:32:25.222Z,86.52
2023-02-19T13:35:11.691Z,86.76
2023-02-19T13:37:38.655Z,87.49
2023-02-19T13:40:27.201Z,87.69
2023-02-19T13:43:05.508Z,87.03
2023-02-19T13:45:36.589Z,86.58
2023-02-19T13:48:14.234Z,85.16
2023-02-19T13:50:43.258Z,84.52
2023-02-19T13:53:48.273Z,84.21
2023-02-19T13:56:29.899Z,84.95
2023-02-19T13:59:01.518Z,84.05
2023-02-19T14:01:52.738Z,85.11
2023-02-19T14:04:39.401Z,84.31
2023-02-19T14:07:10.056Z,83.90
2023-02-19T14:09:40.037Z,83.51
2023-02-19T14:12:16.430Z,82.58
2023-02-19T14:15:24.786Z,82.03
2023-02-19T14:17:53.109Z,81.94
2023-02-19T14:20:41.672Z,81.68
2023-02-19T14:23:25.491Z,81.34
2023-02-19T14:25:56.676Z,80.35
2023-02-19T14:28:31.706Z,79.30
2023-02-19T14:31:21.024Z,78.38
2023-02-19T14:33:53.776Z,78.70
2023-02-19T14:36:48.749Z,79.15
2023-02-19T14:39:42.152Z,78.79
2023-02-19T14:42:17.703Z,77.47
2023-02-19T14:44:50.367Z,77.76
2023-02-19T14:47:20.347Z,78.04
2023-02-19T14:49:52.835Z,78.27
2023-02-19T14:52:26.569Z,77.67
2023-02-19T14:55:02.297Z,76.61
2023-02-19T14:57:32.851Z,78.14
2023-02-19T15:00:01.721Z,77.70
2023-02-19T15:02:30.986Z,77.62
2023-02-19T15:04:58.080Z,78.45
2023-02-19T15:07:33.489Z,79.55
2023-02-19T15:10:05.039Z,78.11
2023-02-19T15:12:45.157Z,78.55
2023-02-19T15:15:25.542Z,77.98
2023-02-19T15:17:54.474Z,75.65
2023-02-19T15:20:25.663Z,75.28
2023-02-19T15:22:54.850Z,75.50
2023-02-19T15:25:23.870Z,75.01
2023-02-19T15:27:50.644Z,75.66
2023-02-19T15:30:23.625Z,76.45
2023-02-19T15:32:59.099Z,75.81
2023-02-19T15:35:27.502Z,75.63
2023-02-19T15:37:57.848Z,75.69
2023-02-19T15:40:32.635Z,75.22
2023-02-19T15:43:00.710Z,75.06
2023-02-19T15:45:40.482Z,75.18
2023-02-19T15:48:32.092Z,75.12
2023-02-19T15:51:09.403Z,76.06
2023-02-19T15:53:46.680Z,76.06
2023-02-19T15:56:32.164Z,77.20
2023-02-19T15:59:22.739Z,76.95
2023-02-19T16:01:49.496Z,76.84
2023-02-19T16:04:18.599Z,76.47
2023-02-19T16:06:54.484Z,77.20
2023-02-19T16:09:28.216Z,77.10
2023-02-19T16:11:58.480Z,77.66
2023-02-19T16:14:25.227Z,77.88
2023-02-19T16:16:55.624Z,78.03
2023-02-19T16:19:31.397Z,78.08
2023-02-19T16:21:58.492Z,77.95
2023-02-19T16:24:28.500Z,79.09
2023-02-19T16:26:57.151Z,79.28
2023-02-19T16:29:31.527Z,79.70
2023-02-19T16:32:03.594Z,79.90
2023-02-19T16:34:41.664Z,79.42
2023-02-19T16:37:40.795Z,79.83
2023-02-19T16:40:07.452Z,80.29
2023-02-19T16:42:58.286Z,81.05
2023-02-19T16:45:27.376Z,80.65
2023-02-19T16:47:54.246Z,81.13
2023-02-19T16:50:25.100Z,81.46
2023-02-19T16:53:02.093Z,81.46
2023-02-19T16:55:30.172Z,81.66
2023-02-19T16:57:56.739Z,81.93
2023-02-19T17:00:33.709Z,82.00
2023-02-19T17:03:09.035Z,82.26
2023-02-19T17:05:41.309Z,82.01
2023-02-19T17:08:33.808Z,81.86
2023-02-19T17:11:11.381Z,82.27
2023-02-19T17:13:38.280Z,82.68
2023-02-19T17:16:05.328Z,82.77
2023-02-19T17:18:38.161Z,82.66
2023-02-19T17:21:16.148Z,83.21
2023-02-19T17:23:49.281Z,83.60
2023-02-19T17:26:18.101Z,83.78
2023-02-19T17:28:44.588Z,83.60
2023-02-19T17:31:12.079Z,84.18
2023-02-19T17:33:38.947Z,84.25
2023-02-19T17:36:07.892Z,85.23
2023-02-19T17:38:38.932Z,85.19
2023-02-19T17:41:05.451Z,85.02
2023-02-19T17:43:31.913Z,85.27
2023-02-19T17:45:58.537Z,85.19
2023-02-19T17:48:25.212Z,85.59
2023-02-19T17:50:52.300Z,85.86
2023-02-19T17:55:45.834Z,85.77
2023-02-19T17:58:12.627Z,86.51
2023-02-19T18:00:41.418Z,86.47
2023-02-19T18:03:08.064Z,86.64
2023-02-19T18:05:34.880Z,86.97
2023-02-19T18:08:03.179Z,87.29
2023-02-19T18:10:30.536Z,87.29
2023-02-19T18:12:57.192Z,87.75
2023-02-19T18:15:31.343Z,87.78
2023-02-19T18:17:58.390Z,87.84
2023-02-19T18:20:27.406Z,87.83
2023-02-19T18:22:56.576Z,88.14
2023-02-19T18:25:25.495Z,88.35
2023-02-19T18:27:52.660Z,88.29
2023-02-19T18:30:22.990Z,88.26
2023-02-19T18:32:50.271Z,88.23
2023-02-19T18:35:23.855Z,88.01
2023-02-19T18:37:53.254Z,88.86
2023-02-19T18:40:25.988Z,88.19
2023-02-19T18:42:52.992Z,88.65
2023-02-19T18:45:19.607Z,88.97
2023-02-19T18:47:50.123Z,88.59
2023-02-19T18:50:19.417Z,88.70
2023-02-19T18:52:45.961Z,88.88
2023-02-19T18:55:12.488Z,88.80
2023-02-19T18:57:39.035Z,88.81
2023-02-19T19:00:06.963Z,88.72
2023-02-19T19:02:48.728Z,88.92
2023-02-19T19:05:23.452Z,88.71
2023-02-19T19:07:57.063Z,88.74
2023-02-19T19:10:26.340Z,89.08
2023-02-19T19:12:54.202Z,88.87
2023-02-19T19:15:25.988Z,89.20
2023-02-19T19:17:52.865Z,88.99
2023-02-19T19:20:23.312Z,89.55
2023-02-19T19:22:52.903Z,89.08
2023-02-19T19:25:23.260Z,89.71
2023-02-19T19:27:51.691Z,89.86
2023-02-19T19:30:20.455Z,89.59
2023-02-19T19:32:51.882Z,89.87
2023-02-19T19:35:19.552Z,89.54
2023-02-19T19:37:48.141Z,89.83
2023-02-19T19:40:17.176Z,90.26
2023-02-19T19:42:46.096Z,90.33
2023-02-19T19:45:14.191Z,90.40
2023-02-19T19:47:40.698Z,90.76
2023-02-19T19:50:07.450Z,90.99
2023-02-19T19:52:35.709Z,91.16
2023-02-19T19:55:02.329Z,91.23
2023-02-19T19:57:28.802Z,92.05
2023-02-19T19:59:57.464Z,91.76
2023-02-19T20:02:24.140Z,92.16
2023-02-19T20:04:51.104Z,92.73
2023-02-19T20:07:17.650Z,92.94
2023-02-19T20:09:51.434Z,92.65
2023-02-19T20:12:18.035Z,93.08
2023-02-19T20:14:46.178Z,94.12
2023-02-19T20:17:13.157Z,94.37
2023-02-19T20:19:39.700Z,94.73
2023-02-19T20:22:06.203Z,94.86
2023-02-19T20:24:32.732Z,94.18
2023-02-19T20:27:02.585Z,94.60
2023-02-19T20:29:35.436Z,94.27
2023-02-19T20:32:03.978Z,94.65
2023-02-19T20:34:31.080Z,94.96
2023-02-19T20:36:57.953Z,95.30
2023-02-19T20:39:28.812Z,94.66
2023-02-19T20:41:56.286Z,95.09
2023-02-19T20:44:27.154Z,94.81
2023-02-19T20:46:54.097Z,95.04
2023-02-19T20:49:23.123Z,94.22
2023-02-19T20:51:52.118Z,94.64
2023-02-19T20:54:20.584Z,94.51
2023-02-19T20:56:49.307Z,94.97
2023-02-19T20:59:17.391Z,94.51
2023-02-19T21:01:44.324Z,94.56
2023-02-19T21:04:11.244Z,94.30
2023-02-19T21:06:42.487Z,94.62
2023-02-19T21:11:40.434Z,94.15
2023-02-19T21:14:06.958Z,94.42
2023-02-19T21:16:33.663Z,94.35
2023-02-19T21:19:00.280Z,94.50
2023-02-19T21:21:29.369Z,94.03
2023-02-19T21:23:57.858Z,93.74
2023-02-19T21:26:25.451Z,93.65
2023-02-19T21:29:03.788Z,93.66
2023-02-19T21:31:47.816Z,93.83
2023-02-19T21:34:21.154Z,93.89
2023-02-19T21:36:49.340Z,93.63
2023-02-19T21:39:19.028Z,92.72
2023-02-19T21:41:45.750Z,92.78
2023-02-19T21:44:12.499Z,92.11
2023-02-19T21:46:39.132Z,92.99
2023-02-19T21:49:11.213Z,92.94
2023-02-19T21:51:40.237Z,92.47
2023-02-19T21:54:08.279Z,92.24
2023-02-19T21:56:36.649Z,93.00
2023-02-19T21:59:05.268Z,92.57
2023-02-19T22:01:34.092Z,92.62
2023-02-19T22:04:01.457Z,92.81
2023-02-19T22:06:30.756Z,93.07
2023-02-19T22:08:58.281Z,92.39
2023-02-19T22:11:31.255Z,92.85
2023-02-19T22:13:58.146Z,93.10
2023-02-19T22:16:25.016Z,93.01
2023-02-19T22:18:57.305Z,93.20
2023-02-19T22:21:26.090Z,93.88
2023-02-19T22:23:53.659Z,93.60
2023-02-19T22:26:34.481Z,93.95
2023-02-19T22:29:05.921Z,94.44
2023-02-19T22:31:33.405Z,94.49
2023-02-19T22:34:04.690Z,93.95
2023-02-19T22:36:33.352Z,94.38
2023-02-19T22:39:01.025Z,94.53
2023-02-19T22:41:29.457Z,94.86
2023-02-19T22:43:57.337Z,95.01
2023-02-19T22:46:25.718Z,94.55
2023-02-19T22:48:54.684Z,94.84
2023-02-19T22:51:23.164Z,95.00
2023-02-19T22:54:00.422Z,95.18
2023-02-19T22:56:28.585Z,95.17
2023-02-19T22:58:56.912Z,94.98
2023-02-19T23:01:25.778Z,95.05
2023-02-19T23:03:54.937Z,95.12
2023-02-19T23:06:33.296Z,95.76
2023-02-19T23:09:04.198Z,95.85
2023-02-19T23:11:34.057Z,95.34
2023-02-19T23:14:02.696Z,95.67
2023-02-19T23:16:29.290Z,96.30
2023-02-19T23:18:55.886Z,96.29
2023-02-19T23:21:25.479Z,96.88
2023-02-19T23:23:51.946Z,97.06
2023-02-19T23:26:19.479Z,97.54
2023-02-19T23:28:46.989Z,98.03
2023-02-19T23:31:16.221Z,97.74
2023-02-19T23:33:43.503Z,97.97
2023-02-19T23:36:11.541Z,98.20
2023-02-19T23:38:38.241Z,98.41
2023-02-19T23:41:10.799Z,98.61
2023-02-19T23:43:39.381Z,98.41
2023-02-19T23:46:06.242Z,98.05
2023-02-19T23:48:32.884Z,98.28
2023-02-19T23:51:01.461Z,98.79
2023-02-19T23:53:28.171Z,98.98
2023-02-19T23:55:54.899Z,98.89
2023-02-19T23:58:21.513Z,98.75
